Map

Track Data

SID SEASON NUMBER BASIN SUBBASIN NAME ISO_TIME NATURE LAT LON WMO_WIND WMO_PRES WMO_AGENCY TRACK_TYPE DIST2LAND LANDFALL IFLAG USA_AGENCY USA_ATCF_ID USA_LAT USA_LON USA_RECORD USA_STATUS USA_WIND USA_PRES USA_SSHS USA_R34_NE USA_R34_SE USA_R34_SW USA_R34_NW USA_R50_NE USA_R50_SE USA_R50_SW USA_R50_NW USA_R64_NE USA_R64_SE USA_R64_SW USA_R64_NW USA_POCI USA_ROCI USA_RMW USA_EYE TOKYO_LAT TOKYO_LON TOKYO_GRADE TOKYO_WIND TOKYO_PRES TOKYO_R50_DIR TOKYO_R50_LONG TOKYO_R50_SHORT TOKYO_R30_DIR TOKYO_R30_LONG TOKYO_R30_SHORT TOKYO_LAND CMA_LAT CMA_LON CMA_CAT CMA_WIND CMA_PRES HKO_LAT HKO_LON HKO_CAT HKO_WIND HKO_PRES NEWDELHI_LAT NEWDELHI_LON NEWDELHI_GRADE NEWDELHI_WIND NEWDELHI_PRES NEWDELHI_CI NEWDELHI_DP NEWDELHI_POCI REUNION_LAT REUNION_LON REUNION_TYPE REUNION_WIND REUNION_PRES REUNION_TNUM REUNION_CI REUNION_RMW REUNION_R34_NE REUNION_R34_SE REUNION_R34_SW REUNION_R34_NW REUNION_R50_NE REUNION_R50_SE REUNION_R50_SW REUNION_R50_NW REUNION_R64_NE REUNION_R64_SE REUNION_R64_SW REUNION_R64_NW BOM_LAT BOM_LON BOM_TYPE BOM_WIND BOM_PRES BOM_TNUM BOM_CI BOM_RMW BOM_R34_NE BOM_R34_SE BOM_R34_SW BOM_R34_NW BOM_R50_NE BOM_R50_SE BOM_R50_SW BOM_R50_NW BOM_R64_NE BOM_R64_SE BOM_R64_SW BOM_R64_NW BOM_ROCI BOM_POCI BOM_EYE BOM_POS_METHOD BOM_PRES_METHOD NADI_LAT NADI_LON NADI_CAT NADI_WIND NADI_PRES WELLINGTON_LAT WELLINGTON_LON WELLINGTON_WIND WELLINGTON_PRES DS824_LAT DS824_LON DS824_STAGE DS824_WIND DS824_PRES TD9636_LAT TD9636_LON TD9636_STAGE TD9636_WIND TD9636_PRES TD9635_LAT TD9635_LON TD9635_WIND TD9635_PRES TD9635_ROCI NEUMANN_LAT NEUMANN_LON NEUMANN_CLASS NEUMANN_WIND NEUMANN_PRES MLC_LAT MLC_LON MLC_CLASS MLC_WIND MLC_PRES USA_GUST BOM_GUST BOM_GUST_PER REUNION_GUST REUNION_GUST_PER USA_SEAHGT USA_SEARAD_NE USA_SEARAD_SE USA_SEARAD_SW USA_SEARAD_NW STORM_SPEED STORM_DIR
1945335S09065 1946 83 SI MM NOT_NAMED 1945-12-01 06:00:00 NR -9.30000 65.0000 reunion main 1440 1435 _____O________ -1 -9.30000 65.0000 99 9.90000 2 245
1945335S09065 1946 83 SI MM NOT_NAMED 1945-12-01 09:00:00 NR -9.34095 64.9144 main 1435 1419 _____P________ -1 -9.34095 64.9144 99 2 244
1945335S09065 1946 83 SI MM NOT_NAMED 1945-12-01 12:00:00 NR -9.38633 64.8203 main 1419 1414 _____P________ -1 -9.38633 64.8203 99 2 244
1945335S09065 1946 83 SI MM NOT_NAMED 1945-12-01 15:00:00 NR -9.44060 64.7093 main 1414 1398 _____P________ -1 -9.44060 64.7093 99 3 243
1945335S09065 1946 83 SI MM NOT_NAMED 1945-12-01 18:00:00 NR -9.50819 64.5727 main 1398 1377 _____P________ -1 -9.50819 64.5727 99 3 243
1945335S09065 1946 83 SI MM NOT_NAMED 1945-12-01 21:00:00 NR -9.59354 64.4021 main 1377 1357 _____P________ -1 -9.59354 64.4021 99 4 243
1945335S09065 1946 83 SI MM NOT_NAMED 1945-12-02 00:00:00 NR -9.70104 64.1889 main 1357 1331 _____P________ -1 -9.70104 64.1889 99 5 243
1945335S09065 1946 83 SI MM NOT_NAMED 1945-12-02 03:00:00 NR -9.83508 63.9244 main 1331 1295 _____P________ -1 -9.83508 63.9244 99 7 243
1945335S09065 1946 83 SI MM NOT_NAMED 1945-12-02 06:00:00 NR -10.0000 63.6000 reunion main 1295 1255 _____O________ -1 -10.0000 63.6000 99 9.90000 8 243
1945335S09065 1946 83 SI MM NOT_NAMED 1945-12-02 09:00:00 NR -10.1982 63.2106 main 1255 1215 _____P________ -1 -10.1982 63.2106 99 9 243
1945335S09065 1946 83 SI MM NOT_NAMED 1945-12-02 12:00:00 NR -10.4247 62.7659 main 1215 1161 _____P________ -1 -10.4247 62.7659 99 10 243
1945335S09065 1946 83 SI MM NOT_NAMED 1945-12-02 15:00:00 NR -10.6727 62.2795 main 1161 1119 _____P________ -1 -10.6727 62.2795 99 11 243
1945335S09065 1946 83 SI MM NOT_NAMED 1945-12-02 18:00:00 NR -10.9354 61.7649 main 1119 1068 _____P________ -1 -10.9354 61.7649 99 12 243
1945335S09065 1946 83 SI MM NOT_NAMED 1945-12-02 21:00:00 NR -11.2061 61.2359 main 1064 1014 _____P________ -1 -11.2061 61.2359 99 12 242
1945335S09065 1946 83 SI MM NOT_NAMED 1945-12-03 00:00:00 NR -11.4780 60.7061 main 1014 977 _____P________ -1 -11.4780 60.7061 99 12 242
1945335S09065 1946 83 SI MM NOT_NAMED 1945-12-03 03:00:00 NR -11.7448 60.1895 main 977 931 _____P________ -1 -11.7448 60.1895 99 11 242
1945335S09065 1946 83 SI MM NOT_NAMED 1945-12-03 06:00:00 NR -12.0000 59.7000 reunion main 931 900 _____O________ -1 -12.0000 59.7000 99 9.90000 10 243
1945335S09065 1946 83 SI MM NOT_NAMED 1945-12-03 09:00:00 NR -12.1970 59.2691 main 900 871 _____P________ -1 -12.1970 59.2691 99 9 245
1945335S09065 1946 83 SI MM NOT_NAMED 1945-12-03 12:00:00 NR -12.3831 58.8569 main 871 843 _____P________ -1 -12.3831 58.8569 99 9 245
1945335S09065 1946 83 SI MM NOT_NAMED 1945-12-03 15:00:00 NR -12.5644 58.4639 main 843 829 _____P________ -1 -12.5644 58.4639 99 8 244
1945335S09065 1946 83 SI MM NOT_NAMED 1945-12-03 18:00:00 NR -12.7465 58.0905 main 829 805 _____P________ -1 -12.7465 58.0905 99 8 242
1945335S09065 1946 83 SI MM NOT_NAMED 1945-12-03 21:00:00 NR -12.9353 57.7371 main 805 780 _____P________ -1 -12.9353 57.7371 99 8 240
1945335S09065 1946 83 SI MM NOT_NAMED 1945-12-04 00:00:00 NR -13.1367 57.4039 main 780 742 _____P________ -1 -13.1367 57.4039 99 8 236
1945335S09065 1946 83 SI MM NOT_NAMED 1945-12-04 03:00:00 NR -13.3563 57.0915 main 739 702 _____P________ -1 -13.3563 57.0915 99 8 232
1945335S09065 1946 83 SI MM NOT_NAMED 1945-12-04 06:00:00 NR -13.6000 56.8000 reunion main 702 662 _____O________ -1 -13.6000 56.8000 99 9.90000 8 227
1945335S09065 1946 83 SI MM NOT_NAMED 1945-12-04 09:00:00 NR -13.9051 56.4882 main 662 623 _____P________ -1 -13.9051 56.4882 99 9 223
1945335S09065 1946 83 SI MM NOT_NAMED 1945-12-04 12:00:00 NR -14.2360 56.1952 main 623 584 _____P________ -1 -14.2360 56.1952 99 9 219
1945335S09065 1946 83 SI MM NOT_NAMED 1945-12-04 15:00:00 NR -14.5844 55.9239 main 584 559 _____P________ -1 -14.5844 55.9239 99 9 215
1945335S09065 1946 83 SI MM NOT_NAMED 1945-12-04 18:00:00 NR -14.9420 55.6772 main 559 536 _____P________ -1 -14.9420 55.6772 99 9 212
1945335S09065 1946 83 SI MM NOT_NAMED 1945-12-04 21:00:00 NR -15.3006 55.4583 main 536 514 _____P________ -1 -15.3006 55.4583 99 8 209
1945335S09065 1946 83 SI MM NOT_NAMED 1945-12-05 00:00:00 NR -15.6519 55.2704 main 515 495 _____P________ -1 -15.6519 55.2704 99 8 206
1945335S09065 1946 83 SI MM NOT_NAMED 1945-12-05 03:00:00 NR -15.9878 55.1165 main 497 489 _____P________ -1 -15.9878 55.1165 99 7 202
1945335S09065 1946 83 SI MM NOT_NAMED 1945-12-05 06:00:00 NR -16.3000 55.0000 reunion main 491 483 _____O________ -1 -16.3000 55.0000 99 9.90000 6 201
1945335S09065 1946 83 SI MM NOT_NAMED 1945-12-05 09:00:00 NR -16.5164 54.8972 main 486 475 _____P________ -1 -16.5164 54.8972 99 4 202
1945335S09065 1946 83 SI MM NOT_NAMED 1945-12-05 12:00:00 NR -16.7067 54.8316 main 475 457 _____P________ -1 -16.7067 54.8316 99 4 193
1945335S09065 1946 83 SI MM NOT_NAMED 1945-12-05 15:00:00 NR -16.8834 54.8011 main 457 448 _____P________ -1 -16.8834 54.8011 99 4 0
1945335S09065 1946 83 SI MM NOT_NAMED 1945-12-05 18:00:00 NR -17.0591 54.8036 main 439 428 _____P________ -1 -17.0591 54.8036 99 4 174
1945335S09065 1946 83 SI MM NOT_NAMED 1945-12-05 21:00:00 NR -17.2460 54.8368 main 428 404 _____P________ -1 -17.2460 54.8368 99 4 168
1945335S09065 1946 83 SI MM NOT_NAMED 1945-12-06 00:00:00 NR -17.4569 54.8987 main 393 370 _____P________ -1 -17.4569 54.8987 99 5 163
1945335S09065 1946 83 SI MM NOT_NAMED 1945-12-06 03:00:00 NR -17.7040 54.9871 main 370 336 _____P________ -1 -17.7040 54.9871 99 6 161
1945335S09065 1946 83 SI MM NOT_NAMED 1945-12-06 06:00:00 NR -18.0000 55.1000 reunion main 336 291 _____O________ -1 -18.0000 55.1000 99 9.90000 8 162
1945335S09065 1946 83 SI MM NOT_NAMED 1945-12-06 09:00:00 NR -18.4429 55.2370 main 291 234 _____P________ -1 -18.4429 55.2370 99 10 163
1945335S09065 1946 83 SI MM NOT_NAMED 1945-12-06 12:00:00 NR -18.9394 55.4059 main 234 178 _____P________ -1 -18.9394 55.4059 99 11 161
1945335S09065 1946 83 SI MM NOT_NAMED 1945-12-06 15:00:00 NR -19.4690 55.5982 main 167 112 _____P________ -1 -19.4690 55.5982 99 11 161
1945335S09065 1946 83 SI MM NOT_NAMED 1945-12-06 18:00:00 NR -20.0113 55.8052 main 112 64 _____P________ -1 -20.0113 55.8052 99 12 160
1945335S09065 1946 83 SI MM NOT_NAMED 1945-12-06 21:00:00 NR -20.5459 56.0180 main 64 38 _____P________ -1 -20.5459 56.0180 99 11 159
1945335S09065 1946 83 SI MM NOT_NAMED 1945-12-07 00:00:00 NR -21.0524 56.2277 main 41 41 _____P________ -1 -21.0524 56.2277 99 10 159
1945335S09065 1946 83 SI MM NOT_NAMED 1945-12-07 03:00:00 NR -21.5105 56.4249 main 66 66 _____P________ -1 -21.5105 56.4249 99 9 158
1945335S09065 1946 83 SI MM NOT_NAMED 1945-12-07 06:00:00 NR -21.9000 56.6000 reunion main 106 106 _____O________ -1 -21.9000 56.6000 99 9.90000 8 157
1945335S09065 1946 83 SI MM NOT_NAMED 1945-12-07 09:00:00 NR -22.2060 56.7457 main 136 136 _____P________ -1 -22.2060 56.7457 99 6 156
1945335S09065 1946 83 SI MM NOT_NAMED 1945-12-07 12:00:00 NR -22.4345 56.8634 main 167 167 _____P________ -1 -22.4345 56.8634 99 4 154
1945335S09065 1946 83 SI MM NOT_NAMED 1945-12-07 15:00:00 NR -22.5966 56.9568 main 190 190 _____P________ -1 -22.5966 56.9568 99 3 151
1945335S09065 1946 83 SI MM NOT_NAMED 1945-12-07 18:00:00 NR -22.7035 57.0300 main 199 199 _____P________ -1 -22.7035 57.0300 99 2 146
1945335S09065 1946 83 SI MM NOT_NAMED 1945-12-07 21:00:00 NR -22.7662 57.0868 main 214 214 _____P________ -1 -22.7662 57.0868 99 1 135
1945335S09065 1946 83 SI MM NOT_NAMED 1945-12-08 00:00:00 NR -22.7959 57.1314 main 214 214 _____P________ -1 -22.7959 57.1314 99 1 115
1945335S09065 1946 83 SI MM NOT_NAMED 1945-12-08 03:00:00 NR -22.8035 57.1677 main 221 221 _____P________ -1 -22.8035 57.1677 99 1 93
1945335S09065 1946 83 SI MM NOT_NAMED 1945-12-08 06:00:00 NR -22.8000 57.2000 reunion main 221 _____O________ -1 -22.8000 57.2000 99 9.90000 1 85

About IBTrACS Database

This database is a web-friendly format of International Best Track Archive for Climate Stewardship (IBTrACS), a global best track data archive curated by NOAA dating back to 1842.

Updated: 2021-12-01